createdAt,value
2022-08-04T21:26:46.322Z,101085.88
2022-08-04T21:29:20.084Z,101094.34
2022-08-04T21:32:09.645Z,101089.97
2022-08-04T21:34:39.841Z,101087.09
2022-08-04T21:37:10.514Z,101093.50
2022-08-04T21:39:59.015Z,101086.25
2022-08-04T21:42:30.623Z,101075.06
2022-08-04T21:45:02.321Z,101076.13
2022-08-04T21:47:45.877Z,101086.06
2022-08-04T21:53:07.104Z,101074.56
2022-08-04T21:56:04.649Z,101079.19
2022-08-04T21:58:32.246Z,101084.19
2022-08-04T22:01:12.635Z,101090.03
2022-08-04T22:03:52.779Z,101093.47
2022-08-04T22:06:28.267Z,101100.19
2022-08-04T22:08:58.218Z,101131.69
2022-08-04T22:11:49.102Z,101154.22
2022-08-04T22:14:34.420Z,101168.00
2022-08-04T22:17:13.637Z,101151.13
2022-08-04T22:19:55.904Z,101126.81
2022-08-04T22:22:30.687Z,101139.13
2022-08-04T22:25:12.491Z,101124.13
2022-08-04T22:28:03.605Z,101087.50
2022-08-04T22:30:36.754Z,101035.09
2022-08-04T22:33:10.582Z,101023.34
2022-08-04T22:35:49.439Z,100975.09
2022-08-04T22:38:56.905Z,100933.56
2022-08-04T22:41:48.837Z,100905.69
2022-08-04T22:44:24.141Z,100872.63
2022-08-04T22:46:58.262Z,100850.69
2022-08-04T22:49:31.442Z,100837.75
2022-08-04T22:52:12.672Z,100819.69
2022-08-04T22:55:15.946Z,100761.50
2022-08-04T22:58:09.872Z,100740.69
2022-08-04T23:01:33.096Z,100753.91
2022-08-04T23:04:45.782Z,100755.56
2022-08-04T23:07:56.997Z,100753.84
2022-08-04T23:10:33.862Z,100767.31
2022-08-04T23:13:05.171Z,100773.81
2022-08-04T23:15:34.057Z,100798.63
2022-08-04T23:18:22.633Z,100813.84
2022-08-04T23:20:56.755Z,100833.75
2022-08-04T23:23:26.933Z,100830.97
2022-08-04T23:26:32.814Z,100846.13
2022-08-04T23:29:05.797Z,100868.00
2022-08-04T23:32:00.681Z,100865.34
2022-08-04T23:34:30.160Z,100870.31
2022-08-04T23:36:59.099Z,100904.84
2022-08-04T23:40:03.337Z,100927.22
2022-08-04T23:42:29.403Z,100937.28
2022-08-04T23:45:10.191Z,100990.00
2022-08-04T23:48:18.819Z,101038.66
2022-08-04T23:51:44.972Z,101134.75
2022-08-04T23:54:29.829Z,101223.38
2022-08-04T23:57:08.923Z,101300.59
2022-08-04T23:59:52.536Z,101426.63
